createdAt,value
2018-12-14T00:00:00.417Z,16.02
2018-12-14T00:02:33.350Z,15.80
2018-12-14T00:05:07.002Z,14.78
2018-12-14T00:07:39.911Z,15.85
2018-12-14T00:10:11.663Z,15.23
2018-12-14T00:12:42.597Z,16.30
2018-12-14T00:15:13.970Z,15.00
2018-12-14T00:17:44.854Z,13.50
2018-12-14T00:20:15.731Z,14.38
2018-12-14T00:22:46.585Z,15.05
2018-12-14T00:25:17.475Z,13.93
2018-12-14T00:27:48.660Z,13.43
2018-12-14T00:30:19.561Z,14.83
2018-12-14T00:32:50.538Z,13.83
2018-12-14T00:35:22.097Z,15.08
2018-12-14T00:37:53.033Z,14.87
2018-12-14T00:40:23.883Z,14.18
2018-12-14T00:42:54.796Z,15.40
2018-12-14T00:45:25.737Z,14.90
2018-12-14T00:47:57.341Z,14.25
2018-12-14T00:50:28.365Z,13.80
2018-12-14T00:52:59.242Z,13.18
2018-12-14T00:55:31.945Z,13.60
2018-12-14T00:58:03.410Z,13.40
2018-12-14T01:00:37.822Z,13.68
2018-12-14T01:03:08.726Z,14.13
2018-12-14T01:05:39.989Z,14.73
2018-12-14T01:08:10.897Z,14.58
2018-12-14T01:10:41.953Z,12.70
2018-12-14T01:13:12.880Z,14.70
2018-12-14T01:15:44.044Z,13.58
2018-12-14T01:18:14.965Z,13.45
2018-12-14T01:20:45.910Z,14.30
2018-12-14T01:23:16.853Z,13.90
2018-12-14T01:25:47.779Z,15.15
2018-12-14T01:28:18.713Z,13.25
2018-12-14T01:30:49.649Z,14.45
2018-12-14T01:33:20.576Z,15.10
2018-12-14T01:35:51.525Z,14.23
2018-12-14T01:38:22.457Z,15.25
2018-12-14T01:40:53.526Z,16.48
2018-12-14T01:43:24.369Z,14.30
2018-12-14T01:45:55.242Z,14.35
2018-12-14T01:48:26.122Z,14.40
2018-12-14T01:50:57.090Z,14.78
2018-12-14T01:53:27.946Z,14.45
2018-12-14T01:55:58.843Z,14.47
2018-12-14T01:58:29.684Z,14.73
2018-12-14T02:01:01.071Z,13.72
2018-12-14T02:03:31.937Z,14.15
2018-12-14T02:06:02.890Z,14.33
2018-12-14T02:08:34.252Z,15.10
2018-12-14T02:11:05.658Z,13.75
2018-12-14T02:13:36.843Z,14.20
2018-12-14T02:16:07.975Z,13.78
2018-12-14T02:18:38.830Z,14.50
2018-12-14T02:21:09.842Z,14.93
2018-12-14T02:23:40.690Z,13.88
2018-12-14T02:26:11.663Z,13.35
2018-12-14T02:28:42.582Z,15.55
2018-12-14T02:31:13.510Z,15.35
2018-12-14T02:33:44.426Z,14.03
2018-12-14T02:36:15.695Z,14.07
2018-12-14T02:38:46.605Z,14.90
2018-12-14T02:41:17.551Z,14.05
2018-12-14T02:43:49.967Z,13.45
2018-12-14T02:46:20.841Z,14.70
2018-12-14T02:48:51.702Z,15.28
2018-12-14T02:51:23.136Z,13.40
2018-12-14T02:53:54.070Z,14.80
2018-12-14T02:56:25.343Z,15.08
2018-12-14T02:58:56.174Z,15.53
2018-12-14T03:01:27.613Z,13.85
2018-12-14T03:03:58.499Z,14.40
2018-12-14T03:06:29.712Z,15.10
2018-12-14T03:09:01.035Z,15.20
2018-12-14T03:11:33.630Z,15.08
2018-12-14T03:14:05.587Z,14.35
2018-12-14T03:16:36.436Z,14.15
2018-12-14T03:19:07.511Z,13.93
2018-12-14T03:21:39.541Z,13.85
2018-12-14T03:24:10.357Z,13.70
2018-12-14T03:26:41.218Z,14.05
2018-12-14T03:29:12.062Z,15.40
2018-12-14T03:31:42.970Z,15.50
2018-12-14T03:34:13.810Z,13.70
2018-12-14T03:36:44.906Z,14.05
2018-12-14T03:39:16.003Z,13.80
2018-12-14T03:41:47.495Z,15.05
2018-12-14T03:44:18.399Z,14.75
2018-12-14T03:46:49.614Z,13.70
2018-12-14T03:49:20.584Z,14.78
2018-12-14T03:51:51.488Z,13.53
2018-12-14T03:54:22.358Z,14.60
2018-12-14T03:56:53.274Z,13.38
2018-12-14T03:59:24.534Z,14.33
2018-12-14T04:01:55.571Z,14.10
2018-12-14T04:04:26.497Z,15.50
2018-12-14T04:06:57.426Z,13.05
2018-12-14T04:09:28.698Z,12.70
2018-12-14T04:11:59.574Z,13.13
2018-12-14T04:14:30.571Z,13.53
2018-12-14T04:17:01.908Z,12.90
2018-12-14T04:19:32.955Z,12.20
2018-12-14T04:22:03.862Z,12.53
2018-12-14T04:24:34.715Z,13.30
2018-12-14T04:27:05.645Z,13.03
2018-12-14T04:29:37.420Z,13.10
2018-12-14T04:32:08.329Z,13.88
2018-12-14T04:34:39.187Z,12.55
2018-12-14T04:37:10.108Z,13.90
2018-12-14T04:39:40.980Z,12.28
2018-12-14T04:42:11.883Z,12.25
2018-12-14T04:44:42.639Z,13.83
2018-12-14T04:47:13.610Z,13.30
2018-12-14T04:49:45.459Z,12.50
2018-12-14T04:52:16.382Z,13.83
2018-12-14T04:54:47.628Z,14.43
2018-12-14T04:57:18.536Z,12.53
2018-12-14T04:59:49.916Z,13.13
2018-12-14T05:02:20.818Z,13.75
2018-12-14T05:04:52.164Z,13.65
2018-12-14T05:07:23.105Z,14.00
2018-12-14T05:09:54.054Z,13.62
2018-12-14T05:12:24.990Z,12.90
2018-12-14T05:14:56.275Z,12.88
2018-12-14T05:17:27.815Z,12.90
2018-12-14T05:19:58.846Z,11.93
2018-12-14T05:22:29.857Z,13.70
2018-12-14T05:25:01.138Z,14.25
2018-12-14T05:27:32.630Z,13.53
2018-12-14T05:30:06.015Z,13.90
2018-12-14T05:32:36.893Z,12.55
2018-12-14T05:35:08.293Z,12.25
2018-12-14T05:37:39.181Z,12.88
2018-12-14T05:40:10.457Z,13.58
2018-12-14T05:42:41.701Z,12.85
2018-12-14T05:45:12.551Z,13.98
2018-12-14T05:47:43.724Z,13.48
2018-12-14T05:50:14.557Z,12.60
2018-12-14T05:52:45.405Z,13.98
2018-12-14T05:55:16.357Z,12.95
2018-12-14T05:57:47.242Z,15.58
2018-12-14T06:00:18.797Z,13.43
2018-12-14T06:02:51.321Z,14.20
2018-12-14T06:05:26.889Z,13.45
2018-12-14T06:07:59.818Z,14.05
2018-12-14T06:10:30.807Z,12.80
2018-12-14T06:13:02.194Z,16.27
2018-12-14T06:15:33.463Z,13.75
2018-12-14T06:18:08.625Z,12.78
2018-12-14T06:20:40.038Z,11.40
2018-12-14T06:23:10.919Z,11.60
2018-12-14T06:25:42.674Z,11.70
2018-12-14T06:28:13.716Z,12.90
2018-12-14T06:30:44.589Z,13.60
2018-12-14T06:33:15.514Z,13.00
2018-12-14T06:35:46.417Z,13.78
2018-12-14T06:38:17.406Z,11.93
2018-12-14T06:40:48.398Z,12.30
2018-12-14T06:43:19.309Z,12.43
2018-12-14T06:45:50.226Z,12.68
2018-12-14T06:48:21.094Z,12.35
2018-12-14T06:50:52.297Z,12.10
2018-12-14T06:53:23.185Z,12.05
2018-12-14T06:55:54.149Z,11.70
2018-12-14T06:58:25.570Z,13.32
2018-12-14T07:00:56.431Z,15.35
2018-12-14T07:03:28.228Z,15.90
2018-12-14T07:05:59.067Z,13.85
2018-12-14T07:08:31.301Z,13.70
2018-12-14T07:11:02.538Z,12.65
2018-12-14T07:13:39.998Z,13.53
2018-12-14T07:16:10.948Z,12.95
2018-12-14T07:18:41.817Z,12.88
2018-12-14T07:21:12.734Z,12.63
2018-12-14T07:23:43.680Z,12.60
2018-12-14T07:26:14.581Z,11.97
2018-12-14T07:28:45.701Z,12.75
2018-12-14T07:31:16.674Z,13.30
2018-12-14T07:33:47.734Z,12.98
2018-12-14T07:36:19.028Z,11.38
2018-12-14T07:38:49.940Z,12.58
2018-12-14T07:41:20.824Z,12.80
2018-12-14T07:43:51.997Z,12.85
2018-12-14T07:46:23.317Z,12.25
2018-12-14T07:48:54.415Z,12.33
2018-12-14T07:51:25.314Z,13.25
2018-12-14T07:53:56.277Z,12.07
2018-12-14T07:56:27.660Z,12.78
2018-12-14T07:58:59.374Z,12.05
2018-12-14T08:01:30.243Z,11.95
2018-12-14T08:04:01.150Z,12.40
2018-12-14T08:06:32.009Z,13.80
2018-12-14T08:09:03.249Z,12.90
2018-12-14T08:11:36.044Z,13.03
2018-12-14T08:14:06.894Z,12.05
2018-12-14T08:16:38.014Z,12.13
2018-12-14T08:19:08.964Z,13.28
2018-12-14T08:21:39.842Z,13.08
2018-12-14T08:24:10.774Z,11.97
2018-12-14T08:26:41.725Z,11.25
2018-12-14T08:29:12.664Z,13.30
2018-12-14T08:31:43.876Z,13.00
2018-12-14T08:34:14.746Z,15.98
2018-12-14T08:36:45.870Z,14.53
2018-12-14T08:39:16.817Z,16.57
2018-12-14T08:41:48.153Z,16.57
2018-12-14T08:44:19.003Z,14.75
2018-12-14T08:46:49.954Z,15.13
2018-12-14T08:49:20.879Z,12.30
2018-12-14T08:51:51.826Z,12.40
2018-12-14T08:54:23.144Z,11.50
2018-12-14T08:56:54.089Z,13.00
2018-12-14T08:59:25.029Z,11.90
2018-12-14T09:01:56.510Z,11.38
2018-12-14T09:04:27.413Z,11.03
2018-12-14T09:06:58.267Z,10.50
2018-12-14T09:09:29.129Z,10.98
2018-12-14T09:12:00.472Z,10.18
2018-12-14T09:14:31.330Z,11.65
2018-12-14T09:17:02.189Z,11.33
2018-12-14T09:19:33.056Z,10.58
2018-12-14T09:22:04.401Z,10.70
2018-12-14T09:24:35.353Z,11.00
2018-12-14T09:27:06.366Z,11.12
2018-12-14T09:29:37.221Z,10.35
2018-12-14T09:32:08.141Z,10.68
2018-12-14T09:34:39.751Z,10.43
2018-12-14T09:37:10.606Z,10.93
2018-12-14T09:39:42.305Z,11.93
2018-12-14T09:42:13.245Z,11.85
2018-12-14T09:44:44.085Z,12.18
2018-12-14T09:47:15.129Z,11.12
2018-12-14T09:49:47.153Z,11.85
2018-12-14T09:52:18.021Z,11.63
2018-12-14T09:54:48.949Z,11.53
2018-12-14T09:57:19.890Z,12.45
2018-12-14T09:59:50.821Z,12.33
2018-12-14T10:02:21.780Z,12.13
2018-12-14T10:04:52.695Z,10.20
2018-12-14T10:07:24.077Z,11.57
2018-12-14T10:09:54.914Z,11.33
2018-12-14T10:12:25.839Z,11.63
2018-12-14T10:14:56.761Z,10.60
2018-12-14T10:17:28.849Z,10.38
2018-12-14T10:19:59.702Z,11.00
2018-12-14T10:22:32.490Z,9.88
2018-12-14T10:25:03.386Z,10.08
2018-12-14T10:27:34.309Z,10.98
2018-12-14T10:30:06.802Z,10.53
2018-12-14T10:32:37.734Z,10.63
2018-12-14T10:35:11.035Z,10.03
2018-12-14T10:37:42.065Z,10.08
2018-12-14T10:40:13.927Z,11.03
2018-12-14T10:42:44.946Z,16.93
2018-12-14T10:45:15.904Z,13.32
2018-12-14T10:47:46.813Z,11.57
2018-12-14T10:50:17.994Z,13.98
2018-12-14T10:52:48.846Z,11.43
2018-12-14T10:55:19.781Z,11.35
2018-12-14T10:57:51.313Z,11.10
2018-12-14T11:00:27.294Z,11.43
2018-12-14T11:02:58.188Z,10.15
2018-12-14T11:05:29.546Z,9.95
2018-12-14T11:08:00.433Z,11.12
2018-12-14T11:10:31.300Z,10.70
2018-12-14T11:13:02.172Z,11.03
2018-12-14T11:15:33.094Z,11.35
2018-12-14T11:18:04.048Z,10.70
2018-12-14T11:20:34.968Z,12.10
2018-12-14T11:23:05.834Z,9.55
2018-12-14T11:25:37.415Z,10.65
2018-12-14T11:28:08.322Z,11.03
2018-12-14T11:30:39.165Z,11.38
2018-12-14T11:33:10.039Z,10.72
2018-12-14T11:35:40.869Z,9.50
2018-12-14T11:38:11.755Z,12.03
2018-12-14T11:40:42.677Z,10.63
2018-12-14T11:43:13.619Z,10.58
2018-12-14T11:45:44.546Z,11.40
2018-12-14T11:48:15.506Z,11.70
2018-12-14T11:50:46.461Z,11.22
2018-12-14T11:53:20.268Z,10.50
2018-12-14T11:55:51.693Z,10.32
2018-12-14T11:58:22.637Z,11.20
2018-12-14T12:00:53.555Z,10.82
2018-12-14T12:03:24.473Z,12.43
2018-12-14T12:05:56.057Z,10.03
2018-12-14T12:08:26.923Z,11.63
2018-12-14T12:10:57.834Z,12.75
2018-12-14T12:13:28.864Z,13.83
2018-12-14T12:15:59.830Z,14.70
2018-12-14T12:18:30.718Z,21.75
2018-12-14T12:21:02.117Z,24.00
2018-12-14T12:23:33.446Z,21.30
2018-12-14T12:26:04.991Z,26.07
2018-12-14T12:28:36.829Z,16.82
2018-12-14T12:31:07.980Z,23.18
2018-12-14T12:33:38.842Z,18.40
2018-12-14T12:36:09.759Z,18.17
2018-12-14T12:38:40.595Z,33.50
2018-12-14T12:41:11.536Z,15.80
2018-12-14T12:43:42.519Z,12.70
2018-12-14T12:46:13.610Z,12.82
2018-12-14T12:48:45.118Z,13.40
2018-12-14T12:51:16.739Z,12.88
2018-12-14T12:53:47.611Z,11.78
2018-12-14T12:56:19.130Z,12.63
2018-12-14T12:58:50.082Z,12.60
2018-12-14T13:01:20.981Z,12.35
2018-12-14T13:03:52.912Z,13.68
2018-12-14T13:06:23.739Z,12.88
2018-12-14T13:08:55.238Z,15.00
2018-12-14T13:11:26.178Z,12.90
2018-12-14T13:13:57.145Z,14.98
2018-12-14T13:16:28.055Z,12.65
2018-12-14T13:18:58.975Z,12.75
2018-12-14T13:21:29.854Z,13.08
2018-12-14T13:24:00.759Z,15.20
2018-12-14T13:26:31.627Z,12.35
2018-12-14T13:29:02.867Z,13.90
2018-12-14T13:31:33.730Z,14.55
2018-12-14T13:34:06.889Z,15.48
2018-12-14T13:36:38.019Z,12.98
2018-12-14T13:39:09.078Z,13.83
2018-12-14T13:41:40.361Z,15.50
2018-12-14T13:44:11.256Z,13.95
2018-12-14T13:46:42.186Z,12.43
2018-12-14T13:49:13.436Z,12.10
2018-12-14T13:51:44.541Z,11.00
2018-12-14T13:54:15.376Z,12.55
2018-12-14T13:56:46.358Z,15.13
2018-12-14T13:59:17.193Z,13.32
2018-12-14T14:01:48.317Z,14.07
2018-12-14T14:04:19.216Z,14.50
2018-12-14T14:06:50.116Z,12.40
2018-12-14T14:09:21.647Z,11.83
2018-12-14T14:11:52.829Z,12.55
2018-12-14T14:14:24.753Z,22.52
2018-12-14T14:16:56.316Z,12.13
2018-12-14T14:19:27.574Z,12.10
2018-12-14T14:21:58.462Z,11.28
2018-12-14T14:24:30.659Z,11.35
2018-12-14T14:27:01.514Z,13.08
2018-12-14T14:29:32.441Z,12.37
2018-12-14T14:32:03.277Z,11.50
2018-12-14T14:34:34.198Z,10.78
2018-12-14T14:37:05.517Z,13.08
2018-12-14T14:39:36.543Z,13.30
2018-12-14T14:42:08.790Z,12.55
2018-12-14T14:44:39.706Z,12.30
2018-12-14T14:47:10.609Z,12.55
2018-12-14T14:49:41.990Z,13.13
2018-12-14T14:52:12.904Z,13.05
2018-12-14T14:54:43.855Z,11.08
2018-12-14T14:57:14.719Z,12.95
2018-12-14T14:59:45.741Z,12.05
2018-12-14T15:02:16.605Z,13.53
2018-12-14T15:04:47.502Z,12.45
2018-12-14T15:07:18.412Z,13.08
2018-12-14T15:09:49.369Z,12.95
2018-12-14T15:12:20.302Z,16.93
2018-12-14T15:14:51.348Z,13.95
2018-12-14T15:17:22.290Z,16.65
2018-12-14T15:19:53.232Z,16.27
2018-12-14T15:22:24.147Z,11.68
2018-12-14T15:24:55.729Z,12.15
2018-12-14T15:27:26.680Z,12.10
2018-12-14T15:29:57.589Z,10.60
2018-12-14T15:32:29.377Z,12.15
2018-12-14T15:35:00.374Z,11.43
2018-12-14T15:37:31.646Z,11.50
2018-12-14T15:40:02.566Z,11.68
2018-12-14T15:42:33.530Z,11.45
2018-12-14T15:45:05.480Z,12.28
2018-12-14T15:47:36.414Z,12.28
2018-12-14T15:50:08.489Z,12.63
2018-12-14T15:52:39.817Z,12.00
2018-12-14T15:55:11.088Z,11.68
2018-12-14T15:57:43.063Z,11.70
2018-12-14T16:00:14.760Z,12.15
2018-12-14T16:02:45.847Z,12.68
2018-12-14T16:05:16.814Z,11.22
2018-12-14T16:07:48.347Z,12.05
2018-12-14T16:10:19.229Z,10.70
2018-12-14T16:12:51.124Z,10.13
2018-12-14T16:15:22.047Z,11.93
2018-12-14T16:17:54.061Z,10.85
2018-12-14T16:20:25.171Z,11.08
2018-12-14T16:22:56.166Z,11.97
2018-12-14T16:25:27.020Z,10.95
2018-12-14T16:27:58.242Z,11.38
2018-12-14T16:30:29.080Z,10.45
2018-12-14T16:33:00.063Z,10.30
2018-12-14T16:35:37.793Z,11.22
2018-12-14T16:38:08.681Z,10.43
2018-12-14T16:40:40.071Z,11.68
2018-12-14T16:43:12.090Z,10.20
2018-12-14T16:45:43.086Z,10.90
2018-12-14T16:48:15.078Z,11.28
2018-12-14T16:50:47.958Z,11.05
2018-12-14T16:53:21.340Z,11.20
2018-12-14T16:55:54.758Z,10.55
2018-12-14T16:58:25.744Z,11.25
2018-12-14T17:00:57.227Z,10.18
2018-12-14T17:03:30.493Z,10.08
2018-12-14T17:06:09.942Z,12.00
2018-12-14T17:08:41.885Z,12.03
2018-12-14T17:11:17.273Z,11.95
2018-12-14T17:13:49.223Z,10.85
2018-12-14T17:16:22.417Z,11.30
2018-12-14T17:18:56.405Z,10.95
2018-12-14T17:21:28.729Z,10.23
2018-12-14T17:24:01.002Z,11.12
2018-12-14T17:26:32.582Z,9.78
2018-12-14T17:29:05.762Z,11.50
2018-12-14T17:31:36.652Z,11.20
2018-12-14T17:34:08.039Z,11.00
2018-12-14T17:36:40.351Z,10.13
2018-12-14T17:39:14.750Z,9.98
2018-12-14T17:41:54.247Z,10.93
2018-12-14T17:44:28.415Z,12.70
2018-12-14T17:46:59.430Z,10.03
2018-12-14T17:49:32.056Z,10.00
2018-12-14T17:52:03.251Z,10.10
2018-12-14T17:54:36.637Z,10.45
2018-12-14T17:57:09.234Z,11.40
2018-12-14T17:59:42.216Z,9.40
2018-12-14T18:02:16.422Z,10.88
2018-12-14T18:04:50.064Z,10.88
2018-12-14T18:07:21.255Z,11.85
2018-12-14T18:09:53.029Z,9.90
2018-12-14T18:12:27.170Z,10.65
2018-12-14T18:15:02.511Z,10.65
2018-12-14T18:17:36.775Z,10.70
2018-12-14T18:20:09.432Z,11.05
2018-12-14T18:22:43.187Z,10.35
2018-12-14T18:25:16.321Z,11.25
2018-12-14T18:27:48.461Z,11.03
2018-12-14T18:30:19.367Z,11.20
2018-12-14T18:32:56.158Z,11.10
2018-12-14T18:35:28.653Z,11.05
2018-12-14T18:38:00.612Z,11.95
2018-12-14T18:40:35.067Z,12.05
2018-12-14T18:43:08.775Z,12.75
2018-12-14T18:45:40.752Z,12.70
2018-12-14T18:48:16.586Z,12.05
2018-12-14T18:50:47.513Z,10.65
2018-12-14T18:53:20.847Z,10.82
2018-12-14T18:55:56.387Z,11.48
2018-12-14T18:58:28.886Z,10.93
2018-12-14T19:01:00.806Z,11.25
2018-12-14T19:03:32.504Z,11.35
2018-12-14T19:06:05.209Z,11.28
2018-12-14T19:08:38.392Z,10.98
2018-12-14T19:11:09.713Z,11.57
2018-12-14T19:13:40.958Z,11.28
2018-12-14T19:16:11.857Z,12.30
2018-12-14T19:21:30.914Z,12.00
2018-12-14T19:24:04.581Z,11.35
2018-12-14T19:26:36.335Z,11.97
2018-12-14T19:29:07.367Z,10.65
2018-12-14T19:31:38.513Z,13.32
2018-12-14T19:34:10.711Z,12.50
2018-12-14T19:36:45.915Z,13.78
2018-12-14T19:39:17.314Z,12.60
2018-12-14T19:41:49.695Z,11.70
2018-12-14T19:44:20.821Z,11.08
2018-12-14T19:46:53.980Z,11.70
2018-12-14T19:49:25.110Z,12.18
2018-12-14T19:51:57.625Z,11.10
2018-12-14T19:54:29.189Z,11.45
2018-12-14T19:57:01.781Z,11.33
2018-12-14T19:59:33.273Z,12.18
2018-12-14T20:02:06.195Z,11.97
2018-12-14T20:04:38.717Z,12.43
2018-12-14T20:07:09.802Z,11.40
2018-12-14T20:09:40.850Z,12.20
2018-12-14T20:12:12.243Z,11.65
2018-12-14T20:14:44.300Z,11.85
2018-12-14T20:17:15.863Z,11.83
2018-12-14T20:19:47.693Z,12.98
2018-12-14T20:22:20.388Z,12.60
2018-12-14T20:24:51.301Z,12.68
2018-12-14T20:27:23.853Z,12.23
2018-12-14T20:29:54.751Z,12.70
2018-12-14T20:32:25.925Z,11.93
2018-12-14T20:34:57.299Z,11.93
2018-12-14T20:37:28.298Z,11.25
2018-12-14T20:39:59.418Z,11.25
2018-12-14T20:42:31.386Z,11.20
2018-12-14T20:45:04.270Z,11.10
2018-12-14T20:47:35.518Z,12.50
2018-12-14T20:50:08.206Z,11.00
2018-12-14T20:52:40.469Z,12.15
2018-12-14T20:55:11.796Z,12.00
2018-12-14T20:57:42.705Z,11.73
2018-12-14T21:00:14.298Z,11.85
2018-12-14T21:02:46.043Z,11.80
2018-12-14T21:05:17.732Z,12.45
2018-12-14T21:07:49.740Z,10.65
2018-12-14T21:10:20.842Z,10.55
2018-12-14T21:12:51.858Z,11.30
2018-12-14T21:15:23.531Z,11.80
2018-12-14T21:17:54.859Z,10.25
2018-12-14T21:20:25.806Z,11.60
2018-12-14T21:22:57.037Z,11.45
2018-12-14T21:25:27.965Z,10.35
2018-12-14T21:28:00.430Z,11.35
2018-12-14T21:30:31.494Z,11.78
2018-12-14T21:33:02.430Z,11.25
2018-12-14T21:35:33.366Z,12.07
2018-12-14T21:38:04.427Z,11.35
2018-12-14T21:40:35.462Z,11.88
2018-12-14T21:43:06.562Z,12.80
2018-12-14T21:45:38.498Z,12.65
2018-12-14T21:48:10.463Z,12.37
2018-12-14T21:50:41.434Z,12.20
2018-12-14T21:53:14.565Z,12.60
2018-12-14T21:55:45.506Z,12.53
2018-12-14T21:58:16.858Z,19.20
2018-12-14T22:00:47.761Z,14.95
2018-12-14T22:03:18.690Z,12.85
2018-12-14T22:05:49.639Z,13.18
2018-12-14T22:08:20.580Z,12.43
2018-12-14T22:10:52.850Z,12.63
2018-12-14T22:13:25.417Z,12.00
2018-12-14T22:15:58.140Z,13.43
2018-12-14T22:18:29.058Z,12.65
2018-12-14T22:21:00.792Z,13.98
2018-12-14T22:23:32.247Z,12.95
2018-12-14T22:26:03.274Z,12.90
2018-12-14T22:28:34.575Z,14.25
2018-12-14T22:31:05.558Z,16.65
2018-12-14T22:33:36.517Z,15.98
2018-12-14T22:36:07.959Z,15.78
2018-12-14T22:38:38.864Z,15.65
2018-12-14T22:41:09.854Z,16.17
2018-12-14T22:43:41.262Z,14.05
2018-12-14T22:46:12.258Z,14.33
2018-12-14T22:48:43.662Z,12.98
2018-12-14T22:51:14.625Z,12.93
2018-12-14T22:53:45.530Z,13.38
2018-12-14T22:56:16.490Z,13.00
2018-12-14T22:58:47.413Z,12.35
2018-12-14T23:01:19.719Z,13.50
2018-12-14T23:03:50.635Z,14.25
2018-12-14T23:06:22.202Z,13.45
2018-12-14T23:08:53.102Z,13.60
2018-12-14T23:11:25.873Z,13.88
2018-12-14T23:13:56.754Z,14.10
2018-12-14T23:16:27.699Z,11.93
2018-12-14T23:18:58.685Z,16.85
2018-12-14T23:21:29.638Z,14.87
2018-12-14T23:24:00.561Z,15.70
2018-12-14T23:26:32.869Z,14.23
2018-12-14T23:29:03.788Z,13.80
2018-12-14T23:31:35.677Z,13.58
2018-12-14T23:34:07.132Z,14.23
2018-12-14T23:36:38.009Z,14.30
2018-12-14T23:39:08.957Z,14.50
2018-12-14T23:41:54.054Z,14.63
2018-12-14T23:44:24.982Z,14.10
2018-12-14T23:46:58.935Z,14.35
2018-12-14T23:49:29.724Z,14.40
2018-12-14T23:52:00.773Z,14.45
2018-12-14T23:54:31.699Z,15.10
2018-12-14T23:57:02.879Z,14.90
2018-12-14T23:59:33.792Z,14.10
